Nekoma, Kansas
Current Conditions -  °F | °C
As of 9:55 AM on Sunday 23 Nov 2014 (Local Time) from KHYS Reporting Station
Overcast Overcast  
Wind Chill:   Ceiling: 8500
Heat Index:   Visibility: 10mi
Dew Point:   Wind: 30mph
Humidity: 54%   Direction: 360°N
Pressure: 29.57"   Gusts: 39mph
Location:  38.47°N, 99.44°W
Report Text: KHYS 231555Z AUTO 36026G34KT 10SM FEW065 OVC085 09/00 A2957 RMK AO1
Loading
Personal Weather Stations






























Interactive Weather Map New forecast layout! Learn more

10-Day Weather Forecast

Advertisements
Track Severe Weather on mobile